createdAt,value
2022-11-18T00:00:34.211Z,7.10
2022-11-18T00:01:35.870Z,7.10
2022-11-18T00:02:37.547Z,7.20
2022-11-18T00:03:40.516Z,7.20
2022-11-18T00:04:42.289Z,7.20
2022-11-18T00:05:44.066Z,7.20
2022-11-18T00:06:45.645Z,7.20
2022-11-18T00:07:47.300Z,7.20
2022-11-18T00:08:49.517Z,7.20
2022-11-18T00:09:51.329Z,7.10
2022-11-18T00:10:53.964Z,7.20
2022-11-18T00:12:13.992Z,7.10
2022-11-18T00:13:34.653Z,7.20
2022-11-18T00:14:36.243Z,7.20
2022-11-18T00:15:38.066Z,7.10
2022-11-18T00:16:39.643Z,7.20
2022-11-18T00:17:41.227Z,7.10
2022-11-18T00:18:43.022Z,7.10
2022-11-18T00:19:44.658Z,7.10
2022-11-18T00:20:46.266Z,7.10
2022-11-18T00:21:48.251Z,7.10
2022-11-18T00:22:49.873Z,7.20
2022-11-18T00:23:51.462Z,7.20
2022-11-18T00:24:53.034Z,7.10
2022-11-18T00:25:54.897Z,7.10
2022-11-18T00:26:57.046Z,7.10
2022-11-18T00:27:58.606Z,7.00
2022-11-18T00:29:00.224Z,7.00
2022-11-18T00:30:01.922Z,7.10
2022-11-18T00:31:06.060Z,7.10
2022-11-18T00:32:07.659Z,7.10
2022-11-18T00:33:09.244Z,7.10
2022-11-18T00:34:13.164Z,7.20
2022-11-18T00:35:14.832Z,7.20
2022-11-18T00:36:16.452Z,7.20
2022-11-18T00:37:18.049Z,7.10
2022-11-18T00:38:19.670Z,7.10
2022-11-18T00:39:21.709Z,7.10
2022-11-18T00:40:23.607Z,7.10
2022-11-18T00:41:45.228Z,7.20
2022-11-18T00:42:53.603Z,7.20
2022-11-18T00:43:55.194Z,7.20
2022-11-18T00:44:56.847Z,7.20
2022-11-18T00:45:58.856Z,7.20
2022-11-18T00:47:00.548Z,7.20
2022-11-18T00:48:02.947Z,7.20
2022-11-18T00:49:04.610Z,7.30
2022-11-18T00:50:06.670Z,7.30
2022-11-18T00:51:17.293Z,7.30
2022-11-18T00:52:18.911Z,7.30
2022-11-18T00:53:23.059Z,7.20
2022-11-18T00:54:24.689Z,7.30
2022-11-18T00:55:26.281Z,7.30
2022-11-18T00:56:28.035Z,7.30
2022-11-18T00:57:29.928Z,7.30
2022-11-18T00:58:31.542Z,7.30
2022-11-18T00:59:33.187Z,7.30
2022-11-18T01:00:34.782Z,7.30
2022-11-18T01:01:37.009Z,7.30
2022-11-18T01:02:38.893Z,7.30
2022-11-18T01:03:40.524Z,7.30
2022-11-18T01:04:42.112Z,7.30
2022-11-18T01:05:44.224Z,7.20
2022-11-18T01:06:45.939Z,7.20
2022-11-18T01:07:47.599Z,7.30
2022-11-18T01:08:49.277Z,7.20
2022-11-18T01:09:50.929Z,7.20
2022-11-18T01:10:53.514Z,7.30
2022-11-18T01:12:13.882Z,7.30
2022-11-18T01:13:23.145Z,7.30
2022-11-18T01:14:27.883Z,7.30
2022-11-18T01:15:29.458Z,7.30
2022-11-18T01:16:31.210Z,7.30
2022-11-18T01:17:33.204Z,7.30
2022-11-18T01:18:34.906Z,7.30
2022-11-18T01:19:36.854Z,7.30
2022-11-18T01:20:38.579Z,7.20
2022-11-18T01:21:40.169Z,7.30
2022-11-18T01:22:41.762Z,7.20
2022-11-18T01:23:44.368Z,7.20
2022-11-18T01:24:46.022Z,7.20
2022-11-18T01:25:50.516Z,7.10
2022-11-18T01:26:52.109Z,7.00
2022-11-18T01:27:53.752Z,7.00
2022-11-18T01:28:57.625Z,7.00
2022-11-18T01:29:59.233Z,7.00
2022-11-18T01:31:05.636Z,6.90
2022-11-18T01:32:24.813Z,6.90
2022-11-18T01:33:27.025Z,6.90
2022-11-18T01:34:29.433Z,6.90
2022-11-18T01:35:38.965Z,6.90
2022-11-18T01:36:40.569Z,6.90
2022-11-18T01:37:42.183Z,6.90
2022-11-18T01:38:44.004Z,6.90
2022-11-18T01:39:45.713Z,6.90
2022-11-18T01:40:47.416Z,7.00
2022-11-18T01:41:49.029Z,7.00
2022-11-18T01:42:50.640Z,7.00
2022-11-18T01:44:20.265Z,7.10
2022-11-18T01:45:39.758Z,7.10
2022-11-18T01:46:41.329Z,7.20
2022-11-18T01:47:48.560Z,7.20
2022-11-18T01:48:58.474Z,7.20
2022-11-18T01:50:01.640Z,7.20
2022-11-18T01:51:04.944Z,7.20
2022-11-18T01:52:06.859Z,7.20
2022-11-18T01:53:16.197Z,7.20
2022-11-18T01:54:28.348Z,7.30
2022-11-18T01:55:35.223Z,7.30
2022-11-18T01:56:44.898Z,7.30
2022-11-18T01:57:49.665Z,7.40
2022-11-18T01:59:02.408Z,7.40
2022-11-18T02:00:07.755Z,7.40
2022-11-18T02:01:09.591Z,7.40
2022-11-18T02:02:14.214Z,7.40
2022-11-18T02:03:17.106Z,7.30
2022-11-18T02:04:18.742Z,7.30
2022-11-18T02:05:21.465Z,7.30
2022-11-18T02:06:23.093Z,7.30
2022-11-18T02:07:25.673Z,7.30
2022-11-18T02:08:29.204Z,7.30
2022-11-18T02:09:30.878Z,7.30
2022-11-18T02:10:32.598Z,7.40
2022-11-18T02:11:54.637Z,7.40
2022-11-18T02:12:57.707Z,7.40
2022-11-18T02:14:02.554Z,7.40
2022-11-18T02:15:04.691Z,7.40
2022-11-18T02:16:15.694Z,7.30
2022-11-18T02:17:53.725Z,7.30
2022-11-18T02:19:01.121Z,7.30
2022-11-18T02:20:35.471Z,7.30
2022-11-18T02:22:29.474Z,7.30
2022-11-18T02:24:05.938Z,7.30
2022-11-18T02:25:40.970Z,7.40
2022-11-18T02:27:08.958Z,7.40
2022-11-18T02:28:30.847Z,7.40
2022-11-18T02:29:58.100Z,7.40
2022-11-18T02:31:14.751Z,7.40
2022-11-18T02:32:22.538Z,7.40
2022-11-18T02:33:33.629Z,7.40
2022-11-18T02:34:51.313Z,7.40
2022-11-18T02:35:59.117Z,7.40
2022-11-18T02:37:15.568Z,7.40
2022-11-18T02:38:31.100Z,7.40
2022-11-18T02:39:42.190Z,7.40
2022-11-18T02:40:47.878Z,7.40
2022-11-18T02:41:51.946Z,7.30
2022-11-18T02:43:20.736Z,7.30
2022-11-18T02:44:25.940Z,7.30
2022-11-18T02:45:29.009Z,7.40
2022-11-18T02:46:34.009Z,7.40
2022-11-18T02:47:37.508Z,7.40
2022-11-18T02:48:47.676Z,7.40
2022-11-18T02:49:54.297Z,7.40
2022-11-18T02:50:57.528Z,7.40
2022-11-18T02:52:01.609Z,7.40
2022-11-18T02:53:06.345Z,7.50
2022-11-18T02:54:09.938Z,7.50
2022-11-18T02:55:13.594Z,7.50
2022-11-18T02:56:17.094Z,7.50
2022-11-18T02:57:20.764Z,7.60
2022-11-18T02:58:23.440Z,7.60
2022-11-18T02:59:28.126Z,7.60
2022-11-18T03:00:31.009Z,7.60
2022-11-18T03:01:34.893Z,7.70
2022-11-18T03:02:45.275Z,7.70
2022-11-18T03:03:47.280Z,7.70
2022-11-18T03:04:51.555Z,7.60
2022-11-18T03:05:55.937Z,7.60
2022-11-18T03:07:16.226Z,7.60
2022-11-18T03:08:24.733Z,7.60
2022-11-18T03:09:36.362Z,7.60
2022-11-18T03:10:47.749Z,7.60
2022-11-18T03:12:18.639Z,7.60
2022-11-18T03:13:28.334Z,7.60
2022-11-18T03:14:50.802Z,7.60
2022-11-18T03:16:14.347Z,7.50
2022-11-18T03:17:46.421Z,7.50
2022-11-18T03:19:16.965Z,7.60
2022-11-18T03:20:38.962Z,7.50
2022-11-18T03:21:51.481Z,7.60
2022-11-18T03:23:01.260Z,7.60
2022-11-18T03:24:27.644Z,7.60
2022-11-18T03:25:44.229Z,7.60
2022-11-18T03:26:51.242Z,7.60
2022-11-18T03:28:14.394Z,7.60
2022-11-18T03:29:22.715Z,7.60
2022-11-18T03:30:25.455Z,7.60
2022-11-18T03:31:37.798Z,7.50
2022-11-18T03:32:43.752Z,7.50
2022-11-18T03:33:56.395Z,7.50
2022-11-18T03:35:22.142Z,7.50
2022-11-18T03:36:26.992Z,7.60
2022-11-18T03:37:30.939Z,7.60
2022-11-18T03:38:36.384Z,7.70
2022-11-18T03:39:42.367Z,7.70
2022-11-18T03:40:49.423Z,7.70
2022-11-18T03:41:55.918Z,7.60
2022-11-18T03:43:06.142Z,7.60
2022-11-18T03:44:13.400Z,7.60
2022-11-18T03:45:25.949Z,7.60
2022-11-18T03:46:35.266Z,7.60
2022-11-18T03:47:41.325Z,7.60
2022-11-18T03:48:51.735Z,7.60
2022-11-18T03:49:58.468Z,7.60
2022-11-18T03:51:09.712Z,7.70
2022-11-18T03:52:18.026Z,7.70
2022-11-18T03:53:22.860Z,7.70
2022-11-18T03:54:35.486Z,7.70
2022-11-18T03:55:40.522Z,7.70
2022-11-18T03:56:47.334Z,7.60
2022-11-18T03:58:04.665Z,7.60
2022-11-18T03:59:16.055Z,7.60
2022-11-18T04:00:20.202Z,7.60
2022-11-18T04:01:31.782Z,7.70
2022-11-18T04:02:34.086Z,7.70
2022-11-18T04:03:35.981Z,7.70
2022-11-18T04:04:38.027Z,7.70
2022-11-18T04:05:42.549Z,7.70
2022-11-18T04:07:02.402Z,7.70
2022-11-18T04:08:07.935Z,7.70
2022-11-18T04:09:15.378Z,7.70
2022-11-18T04:10:27.096Z,7.60
2022-11-18T04:11:54.373Z,7.60
2022-11-18T04:13:21.944Z,7.60
2022-11-18T04:14:23.585Z,7.70
2022-11-18T04:15:25.483Z,7.70
2022-11-18T04:16:27.231Z,7.70
2022-11-18T04:17:29.685Z,7.70
2022-11-18T04:18:31.279Z,7.80
2022-11-18T04:19:32.910Z,7.80
2022-11-18T04:20:34.657Z,7.80
2022-11-18T04:21:36.643Z,7.80
2022-11-18T04:22:38.577Z,7.80
2022-11-18T04:23:40.176Z,7.80
2022-11-18T04:24:41.832Z,7.80
2022-11-18T04:25:43.439Z,7.80
2022-11-18T04:26:45.054Z,7.70
2022-11-18T04:27:46.673Z,7.70
2022-11-18T04:28:48.268Z,7.70
2022-11-18T04:29:49.870Z,7.80
2022-11-18T04:30:51.469Z,7.70
2022-11-18T04:31:53.089Z,7.70
2022-11-18T04:32:54.972Z,7.70
2022-11-18T04:33:56.557Z,7.70
2022-11-18T04:34:58.181Z,7.70
2022-11-18T04:35:59.766Z,7.70
2022-11-18T04:37:01.379Z,7.70
2022-11-18T04:38:04.828Z,7.70
2022-11-18T04:39:06.859Z,7.70
2022-11-18T04:40:09.274Z,7.60
2022-11-18T04:41:10.878Z,7.60
2022-11-18T04:42:12.550Z,7.60
2022-11-18T04:43:14.231Z,7.50
2022-11-18T04:44:15.870Z,7.60
2022-11-18T04:45:17.492Z,7.50
2022-11-18T04:46:19.096Z,7.60
2022-11-18T04:47:21.455Z,7.60
2022-11-18T04:48:23.086Z,7.70
2022-11-18T04:49:25.878Z,7.70
2022-11-18T04:50:27.477Z,7.70
2022-11-18T04:51:29.058Z,7.70
2022-11-18T04:52:30.736Z,7.70
2022-11-18T04:53:32.494Z,7.70
2022-11-18T04:54:34.113Z,7.70
2022-11-18T04:55:36.567Z,7.70
2022-11-18T04:56:38.369Z,7.70
2022-11-18T04:57:39.955Z,7.70
2022-11-18T04:58:41.620Z,7.70
2022-11-18T04:59:43.233Z,7.70
2022-11-18T05:00:44.827Z,7.80
2022-11-18T05:01:46.589Z,7.80
2022-11-18T05:02:49.057Z,7.70
2022-11-18T05:03:50.963Z,7.70
2022-11-18T05:04:52.641Z,7.80
2022-11-18T05:05:54.263Z,7.80
2022-11-18T05:06:56.113Z,7.80
2022-11-18T05:07:57.766Z,7.70
2022-11-18T05:09:00.796Z,7.80
2022-11-18T05:10:02.388Z,7.80
2022-11-18T05:11:26.605Z,7.80
2022-11-18T05:12:47.634Z,7.80
2022-11-18T05:13:50.841Z,7.80
2022-11-18T05:14:52.458Z,7.80
2022-11-18T05:15:54.038Z,7.70
2022-11-18T05:16:57.227Z,7.80
2022-11-18T05:17:58.854Z,7.70
2022-11-18T05:19:02.205Z,7.80
2022-11-18T05:20:04.184Z,7.80
2022-11-18T05:21:06.334Z,7.80
2022-11-18T05:22:07.956Z,7.90
2022-11-18T05:23:09.570Z,7.80
2022-11-18T05:24:11.393Z,7.80
2022-11-18T05:25:13.347Z,7.90
2022-11-18T05:26:14.942Z,7.90
2022-11-18T05:27:17.193Z,7.90
2022-11-18T05:28:18.794Z,7.90
2022-11-18T05:29:21.177Z,7.90
2022-11-18T05:30:22.905Z,7.90
2022-11-18T05:31:24.508Z,7.90
2022-11-18T05:32:26.239Z,7.80
2022-11-18T05:33:27.853Z,7.90
2022-11-18T05:34:29.459Z,7.90
2022-11-18T05:35:31.079Z,7.90
2022-11-18T05:36:32.698Z,7.90
2022-11-18T05:37:34.382Z,7.90
2022-11-18T05:38:36.443Z,7.90
2022-11-18T05:39:38.145Z,7.90
2022-11-18T05:40:42.411Z,7.90
2022-11-18T05:42:02.493Z,7.90
2022-11-18T05:43:13.703Z,7.90
2022-11-18T05:44:15.495Z,7.90
2022-11-18T05:45:19.331Z,7.90
2022-11-18T05:46:20.989Z,7.80
2022-11-18T05:47:24.883Z,7.80
2022-11-18T05:48:27.087Z,7.90
2022-11-18T05:49:28.770Z,7.80
2022-11-18T05:50:31.895Z,7.80
2022-11-18T05:51:34.170Z,7.90
2022-11-18T05:52:35.777Z,7.90
2022-11-18T05:53:37.360Z,7.90
2022-11-18T05:54:42.326Z,7.90
2022-11-18T05:56:07.256Z,7.90
2022-11-18T05:57:08.907Z,7.90
2022-11-18T05:58:10.513Z,7.90
2022-11-18T05:59:13.798Z,7.90
2022-11-18T06:00:16.037Z,7.90
2022-11-18T06:01:28.579Z,7.90
2022-11-18T06:02:30.673Z,7.90
2022-11-18T06:03:36.816Z,7.90
2022-11-18T06:04:48.945Z,7.90
2022-11-18T06:05:54.610Z,7.80
2022-11-18T06:07:03.790Z,7.90
2022-11-18T06:08:05.568Z,7.80
2022-11-18T06:09:10.772Z,7.80
2022-11-18T06:10:18.923Z,7.70
2022-11-18T06:11:21.638Z,7.70
2022-11-18T06:12:28.259Z,7.70
2022-11-18T06:13:39.015Z,7.70
2022-11-18T06:14:44.588Z,7.70
2022-11-18T06:15:47.001Z,7.80
2022-11-18T06:16:55.428Z,7.70
2022-11-18T06:18:04.641Z,7.80
2022-11-18T06:19:06.846Z,7.80
2022-11-18T06:20:10.286Z,7.80
2022-11-18T06:21:12.192Z,7.80
2022-11-18T06:22:14.246Z,7.80
2022-11-18T06:23:16.071Z,7.80
2022-11-18T06:24:18.344Z,7.80
2022-11-18T06:25:20.661Z,7.80
2022-11-18T06:26:22.270Z,7.80
2022-11-18T06:27:23.905Z,7.80
2022-11-18T06:28:26.597Z,7.80
2022-11-18T06:29:28.925Z,7.80
2022-11-18T06:30:30.824Z,7.80
2022-11-18T06:31:32.493Z,7.80
2022-11-18T06:32:34.091Z,7.80
2022-11-18T06:33:35.716Z,7.80
2022-11-18T06:34:41.415Z,7.90
2022-11-18T06:35:43.766Z,7.90
2022-11-18T06:36:45.359Z,7.90
2022-11-18T06:37:47.304Z,7.90
2022-11-18T06:38:48.923Z,7.90
2022-11-18T06:39:50.561Z,7.90
2022-11-18T06:40:52.414Z,7.90
2022-11-18T06:41:54.337Z,7.90
2022-11-18T06:43:14.545Z,7.80
2022-11-18T06:44:16.806Z,7.90
2022-11-18T06:45:18.528Z,7.80
2022-11-18T06:46:38.916Z,7.90
2022-11-18T06:47:40.539Z,7.90
2022-11-18T06:48:42.149Z,8.00
2022-11-18T06:49:43.728Z,8.00
2022-11-18T06:50:45.495Z,8.00
2022-11-18T06:51:47.141Z,8.10
2022-11-18T06:52:48.740Z,8.00
2022-11-18T06:53:50.847Z,8.00
2022-11-18T06:54:52.450Z,8.10
2022-11-18T06:55:54.066Z,8.20
2022-11-18T06:56:55.657Z,8.20
2022-11-18T06:57:57.511Z,8.20
2022-11-18T06:58:59.523Z,8.20
2022-11-18T07:00:02.557Z,8.20
2022-11-18T07:01:22.399Z,8.20
2022-11-18T07:02:24.030Z,8.20
2022-11-18T07:03:25.605Z,8.10
2022-11-18T07:04:27.286Z,8.10
2022-11-18T07:05:28.993Z,8.10
2022-11-18T07:06:33.130Z,8.00
2022-11-18T07:07:40.498Z,8.00
2022-11-18T07:08:44.515Z,8.00
2022-11-18T07:09:46.122Z,8.00
2022-11-18T07:10:53.198Z,8.00
2022-11-18T07:11:54.862Z,8.00
2022-11-18T07:12:56.453Z,8.00
2022-11-18T07:13:58.043Z,8.00
2022-11-18T07:14:59.645Z,8.00
2022-11-18T07:16:05.873Z,8.00
2022-11-18T07:17:07.558Z,8.00
2022-11-18T07:18:09.159Z,8.00
2022-11-18T07:19:13.557Z,8.00
2022-11-18T07:20:15.430Z,7.90
2022-11-18T07:21:19.578Z,8.00
2022-11-18T07:22:21.289Z,7.90
2022-11-18T07:23:22.872Z,7.90
2022-11-18T07:24:24.455Z,8.00
2022-11-18T07:25:26.054Z,8.00
2022-11-18T07:26:27.655Z,7.90
2022-11-18T07:27:29.307Z,7.80
2022-11-18T07:28:31.204Z,7.70
2022-11-18T07:29:32.896Z,7.70
2022-11-18T07:30:34.475Z,7.70
2022-11-18T07:31:39.891Z,7.60
2022-11-18T07:32:41.681Z,7.60
2022-11-18T07:33:44.785Z,7.60
2022-11-18T07:34:46.438Z,7.50
2022-11-18T07:35:48.031Z,7.50
2022-11-18T07:36:49.774Z,7.50
2022-11-18T07:37:51.601Z,7.40
2022-11-18T07:38:53.642Z,7.40
2022-11-18T07:39:55.268Z,7.40
2022-11-18T07:41:06.697Z,7.30
2022-11-18T07:42:09.820Z,7.30
2022-11-18T07:43:11.424Z,7.30
2022-11-18T07:44:13.296Z,7.20
2022-11-18T07:45:14.954Z,7.30
2022-11-18T07:46:19.611Z,7.20
2022-11-18T07:47:21.447Z,7.20
2022-11-18T07:48:23.096Z,7.30
2022-11-18T07:49:24.701Z,7.20
2022-11-18T07:50:26.353Z,7.20
2022-11-18T07:51:30.484Z,7.20
2022-11-18T07:52:32.088Z,7.20
2022-11-18T07:53:34.317Z,7.20
2022-11-18T07:54:35.974Z,7.20
2022-11-18T07:55:37.591Z,7.20
2022-11-18T07:56:39.304Z,7.10
2022-11-18T07:57:40.966Z,7.10
2022-11-18T07:58:43.433Z,7.10
2022-11-18T07:59:45.039Z,7.10
2022-11-18T08:00:46.642Z,7.10
2022-11-18T08:01:48.426Z,7.10
2022-11-18T08:02:51.237Z,7.10
2022-11-18T08:03:52.847Z,7.20
2022-11-18T08:04:54.453Z,7.20
2022-11-18T08:06:00.141Z,7.20
2022-11-18T08:07:01.736Z,7.30
2022-11-18T08:08:03.414Z,7.30
2022-11-18T08:09:06.297Z,7.30
2022-11-18T08:10:08.438Z,7.30
2022-11-18T08:11:21.943Z,7.40
2022-11-18T08:12:24.421Z,7.40
2022-11-18T08:13:26.727Z,7.40
2022-11-18T08:14:28.760Z,7.40
2022-11-18T08:15:30.348Z,7.40
2022-11-18T08:16:32.138Z,7.40
2022-11-18T08:17:33.858Z,7.40
2022-11-18T08:18:35.442Z,7.50
2022-11-18T08:19:37.046Z,7.60
2022-11-18T08:20:38.630Z,7.60
2022-11-18T08:21:40.214Z,7.60
2022-11-18T08:22:41.860Z,7.70
2022-11-18T08:23:44.030Z,7.70
2022-11-18T08:24:45.632Z,7.70
2022-11-18T08:25:47.730Z,7.70
2022-11-18T08:26:49.359Z,7.70
2022-11-18T08:27:50.983Z,7.70
2022-11-18T08:28:53.293Z,7.70
2022-11-18T08:29:55.033Z,7.70
2022-11-18T08:30:56.627Z,7.80
2022-11-18T08:31:58.224Z,7.80
2022-11-18T08:32:59.956Z,7.80
2022-11-18T08:34:07.436Z,7.80
2022-11-18T08:35:11.341Z,7.80
2022-11-18T08:36:17.224Z,7.90
2022-11-18T08:37:19.047Z,7.80
2022-11-18T08:38:20.666Z,7.90
2022-11-18T08:39:22.339Z,7.80
2022-11-18T08:40:24.632Z,7.80
2022-11-18T08:41:34.946Z,7.90
2022-11-18T08:42:37.842Z,7.90
2022-11-18T08:43:39.505Z,7.80
2022-11-18T08:44:41.112Z,7.90
2022-11-18T08:45:42.760Z,7.90
2022-11-18T08:46:47.524Z,7.70
2022-11-18T08:47:49.160Z,7.60
2022-11-18T08:48:50.799Z,7.60
2022-11-18T08:49:52.384Z,7.50
2022-11-18T08:50:54.868Z,7.60
2022-11-18T08:51:56.512Z,7.50
2022-11-18T08:52:58.109Z,7.40
2022-11-18T08:54:00.031Z,7.30
2022-11-18T08:55:01.958Z,7.30
2022-11-18T08:56:03.628Z,7.30
2022-11-18T08:57:05.241Z,7.30
2022-11-18T08:58:22.149Z,7.20
2022-11-18T08:59:23.850Z,7.20
2022-11-18T09:00:25.547Z,7.10
2022-11-18T09:01:27.528Z,7.10
2022-11-18T09:02:29.220Z,7.10
2022-11-18T09:03:32.133Z,7.10
2022-11-18T09:04:33.802Z,7.10
2022-11-18T09:05:35.433Z,7.10
2022-11-18T09:06:38.482Z,7.20
2022-11-18T09:07:40.181Z,7.20
2022-11-18T09:08:42.872Z,7.10
2022-11-18T09:09:44.549Z,7.20
2022-11-18T09:10:46.155Z,7.10
2022-11-18T09:11:47.836Z,7.20
2022-11-18T09:12:49.427Z,7.10
2022-11-18T09:15:17.854Z,7.20
2022-11-18T09:16:24.923Z,7.20
2022-11-18T09:17:29.324Z,7.20
2022-11-18T09:18:31.620Z,7.20
2022-11-18T09:19:47.191Z,7.20
2022-11-18T09:21:02.431Z,7.20
2022-11-18T09:22:05.162Z,7.20
2022-11-18T09:23:06.857Z,7.20
2022-11-18T09:24:09.186Z,7.30
2022-11-18T09:25:10.923Z,7.20
2022-11-18T09:26:15.979Z,7.20
2022-11-18T09:27:17.800Z,7.20
2022-11-18T09:28:19.885Z,7.30
2022-11-18T09:29:26.199Z,7.30
2022-11-18T09:30:28.001Z,7.30
2022-11-18T09:31:29.595Z,7.30
2022-11-18T09:32:33.128Z,7.40
2022-11-18T09:33:38.571Z,7.40
2022-11-18T09:34:40.199Z,7.40
2022-11-18T09:35:45.176Z,7.40
2022-11-18T09:36:46.869Z,7.30
2022-11-18T09:37:48.491Z,7.40
2022-11-18T09:38:53.142Z,7.30
2022-11-18T09:39:55.199Z,7.30
2022-11-18T09:41:09.691Z,7.30
2022-11-18T09:42:44.851Z,7.40
2022-11-18T09:44:16.484Z,7.40
2022-11-18T09:45:50.136Z,7.40
2022-11-18T09:46:57.383Z,7.30
2022-11-18T09:48:02.787Z,7.30
2022-11-18T09:49:14.992Z,7.30
2022-11-18T09:50:48.034Z,7.40
2022-11-18T09:51:46.663Z,7.40
2022-11-18T09:53:10.089Z,7.50
2022-11-18T09:54:20.263Z,7.50
2022-11-18T09:55:22.303Z,7.40
2022-11-18T09:56:25.429Z,7.40
2022-11-18T09:57:39.821Z,7.40
2022-11-18T09:58:42.681Z,7.40
2022-11-18T09:59:45.199Z,7.40
2022-11-18T10:00:47.065Z,7.40
2022-11-18T10:01:50.301Z,7.40
2022-11-18T10:03:07.738Z,7.50
2022-11-18T10:04:17.382Z,7.60
2022-11-18T10:05:25.051Z,7.60
2022-11-18T10:06:29.459Z,7.70
2022-11-18T10:07:42.054Z,7.60
2022-11-18T10:09:20.754Z,7.60
2022-11-18T10:10:47.061Z,7.60
2022-11-18T10:12:07.459Z,7.60
2022-11-18T10:13:19.359Z,7.60
2022-11-18T10:14:39.896Z,7.60
2022-11-18T10:16:16.694Z,7.60
2022-11-18T10:17:44.307Z,7.60
2022-11-18T10:19:15.636Z,7.60
2022-11-18T10:20:29.177Z,7.60
2022-11-18T10:22:24.687Z,7.50
2022-11-18T10:23:33.599Z,7.40
2022-11-18T10:24:52.342Z,7.40
2022-11-18T10:25:54.658Z,7.40
2022-11-18T10:26:58.365Z,7.40
2022-11-18T10:28:14.737Z,7.40
2022-11-18T10:29:16.509Z,7.50
2022-11-18T10:30:24.030Z,7.40
2022-11-18T10:31:25.634Z,7.50
2022-11-18T10:32:28.030Z,7.50
2022-11-18T10:33:30.686Z,7.40
2022-11-18T10:34:34.827Z,7.40
2022-11-18T10:35:38.538Z,7.50
2022-11-18T10:36:40.523Z,7.40
2022-11-18T10:39:14.091Z,7.30
2022-11-18T10:40:26.802Z,7.20
2022-11-18T10:41:28.468Z,7.20
2022-11-18T10:42:40.731Z,7.20
2022-11-18T10:43:54.712Z,7.10
2022-11-18T10:45:23.573Z,7.10
2022-11-18T10:46:31.628Z,7.10
2022-11-18T10:47:33.724Z,7.00
2022-11-18T10:48:35.351Z,7.00
2022-11-18T10:49:40.070Z,7.00
2022-11-18T10:50:52.048Z,7.00
2022-11-18T10:52:12.137Z,7.00
2022-11-18T10:53:34.180Z,7.00
2022-11-18T10:54:35.778Z,7.00
2022-11-18T10:55:37.575Z,7.00
2022-11-18T10:56:46.634Z,7.00
2022-11-18T10:57:50.383Z,6.90
2022-11-18T10:58:52.667Z,6.90
2022-11-18T10:59:58.097Z,6.90
2022-11-18T11:01:19.521Z,6.90
2022-11-18T11:02:24.500Z,6.80
2022-11-18T11:03:32.283Z,6.80
2022-11-18T11:04:36.507Z,6.80
2022-11-18T11:05:38.110Z,6.80
2022-11-18T11:06:39.718Z,6.80
2022-11-18T11:07:41.591Z,6.80
2022-11-18T11:09:05.630Z,6.80
2022-11-18T11:10:13.271Z,6.90
2022-11-18T11:11:28.390Z,6.90
2022-11-18T11:12:33.276Z,6.90
2022-11-18T11:13:40.515Z,7.00
2022-11-18T11:15:01.851Z,7.00
2022-11-18T11:16:06.577Z,7.00
2022-11-18T11:17:29.080Z,7.00
2022-11-18T11:18:42.278Z,7.00
2022-11-18T11:19:52.285Z,7.00
2022-11-18T11:20:53.889Z,7.00
2022-11-18T11:21:57.291Z,7.00
2022-11-18T11:22:58.962Z,7.00
2022-11-18T11:24:00.628Z,7.00
2022-11-18T11:25:02.437Z,7.10
2022-11-18T11:29:28.039Z,7.00
2022-11-18T11:30:35.396Z,7.00
2022-11-18T11:32:00.811Z,7.10
2022-11-18T11:33:22.622Z,7.10
2022-11-18T11:34:36.961Z,7.10
2022-11-18T11:36:01.134Z,7.20
2022-11-18T11:37:07.667Z,7.20
2022-11-18T11:38:36.530Z,7.20
2022-11-18T11:39:53.426Z,7.30
2022-11-18T11:41:16.352Z,7.30
2022-11-18T11:42:33.089Z,7.20
2022-11-18T11:43:54.758Z,7.20
2022-11-18T11:45:26.828Z,7.20
2022-11-18T11:47:06.328Z,7.20
2022-11-18T11:48:07.921Z,7.00
2022-11-18T11:49:23.669Z,7.10
2022-11-18T11:51:16.222Z,7.10
2022-11-18T11:52:38.490Z,7.00
2022-11-18T11:54:17.813Z,6.90
2022-11-18T11:55:42.186Z,6.70
2022-11-18T11:57:05.352Z,6.70
2022-11-18T11:58:23.606Z,6.60
2022-11-18T11:59:50.145Z,6.60
2022-11-18T12:01:19.364Z,6.60
2022-11-18T12:02:49.546Z,6.70
2022-11-18T12:04:02.597Z,6.70
2022-11-18T12:05:21.331Z,6.60
2022-11-18T12:06:22.950Z,6.50
2022-11-18T12:07:49.351Z,6.70
2022-11-18T12:09:07.231Z,6.80
2022-11-18T12:10:40.280Z,6.80
2022-11-18T12:11:51.570Z,6.80
2022-11-18T12:13:08.752Z,6.90
2022-11-18T12:14:39.896Z,6.90
2022-11-18T12:15:47.785Z,6.90
2022-11-18T12:16:56.936Z,6.80
2022-11-18T12:18:35.155Z,6.80
2022-11-18T12:19:39.510Z,6.80
2022-11-18T12:20:43.334Z,6.80
2022-11-18T12:21:45.534Z,6.90
2022-11-18T12:23:11.243Z,6.90
2022-11-18T12:24:36.976Z,6.90
2022-11-18T12:25:47.807Z,6.90
2022-11-18T12:26:50.565Z,7.00
2022-11-18T12:27:59.424Z,7.00
2022-11-18T12:29:21.336Z,7.00
2022-11-18T12:30:23.221Z,7.10
2022-11-18T12:31:25.606Z,7.10
2022-11-18T12:32:42.903Z,7.20
2022-11-18T12:34:05.406Z,7.20
2022-11-18T12:35:12.897Z,7.30
2022-11-18T12:36:33.951Z,7.20
2022-11-18T12:37:35.501Z,7.10
2022-11-18T12:38:37.171Z,7.10
2022-11-18T12:39:41.638Z,7.20
2022-11-18T12:40:50.836Z,7.20
2022-11-18T12:42:12.987Z,7.20
2022-11-18T12:43:45.358Z,7.10
2022-11-18T12:44:51.715Z,7.10
2022-11-18T12:45:55.330Z,7.10
2022-11-18T12:47:04.378Z,7.10
2022-11-18T12:48:32.422Z,7.00
2022-11-18T12:49:34.035Z,7.00
2022-11-18T12:50:51.427Z,7.00
2022-11-18T12:51:56.912Z,7.00
2022-11-18T12:52:58.498Z,7.00
2022-11-18T12:54:00.242Z,6.90
2022-11-18T12:55:04.800Z,6.80
2022-11-18T12:56:18.360Z,6.80
2022-11-18T12:57:28.041Z,6.70
2022-11-18T12:58:29.885Z,6.70
2022-11-18T12:59:37.208Z,6.70
2022-11-18T13:00:52.415Z,6.70
2022-11-18T13:02:06.315Z,6.60
2022-11-18T13:03:07.991Z,6.50
2022-11-18T13:04:17.021Z,6.50
2022-11-18T13:05:24.573Z,6.40
2022-11-18T13:06:28.432Z,6.30
2022-11-18T13:07:57.910Z,6.40
2022-11-18T13:09:02.284Z,6.40
2022-11-18T13:10:21.140Z,6.40
2022-11-18T13:11:42.847Z,6.40
2022-11-18T13:12:44.595Z,6.50
2022-11-18T13:13:47.350Z,6.60
2022-11-18T13:15:07.951Z,6.50
2022-11-18T13:16:38.504Z,6.50
2022-11-18T13:17:54.542Z,6.50
2022-11-18T13:18:56.239Z,6.30
2022-11-18T13:19:58.359Z,6.30
2022-11-18T13:21:20.124Z,6.20
2022-11-18T13:22:40.599Z,6.20
2022-11-18T13:23:56.169Z,6.20
2022-11-18T13:25:01.071Z,6.20
2022-11-18T13:26:05.469Z,6.10
2022-11-18T13:27:17.697Z,6.10
2022-11-18T13:28:37.805Z,6.20
2022-11-18T13:29:54.092Z,6.30
2022-11-18T13:31:01.268Z,6.40
2022-11-18T13:32:23.729Z,6.40
2022-11-18T13:33:26.042Z,6.60
2022-11-18T13:34:29.905Z,6.60
2022-11-18T13:35:31.587Z,6.50
2022-11-18T13:36:33.306Z,6.50
2022-11-18T13:37:34.941Z,6.50
2022-11-18T13:38:36.597Z,6.50
2022-11-18T13:39:44.018Z,6.40
2022-11-18T13:41:04.221Z,6.40
2022-11-18T13:42:13.928Z,6.40
2022-11-18T13:43:26.291Z,6.40
2022-11-18T13:44:36.539Z,6.40
2022-11-18T13:45:39.377Z,6.20
2022-11-18T13:46:43.230Z,6.10
2022-11-18T13:47:52.768Z,6.10
2022-11-18T13:48:57.958Z,6.00
2022-11-18T13:50:11.825Z,6.00
2022-11-18T13:51:14.173Z,5.90
2022-11-18T13:52:23.841Z,5.90
2022-11-18T13:53:39.224Z,5.90
2022-11-18T13:54:41.522Z,5.80
2022-11-18T13:55:48.407Z,5.70
2022-11-18T13:56:50.737Z,5.70
2022-11-18T13:58:04.910Z,5.50
2022-11-18T14:00:29.806Z,5.40
2022-11-18T14:01:33.701Z,5.40
2022-11-18T14:02:40.831Z,5.40
2022-11-18T14:03:48.183Z,5.30
2022-11-18T14:05:00.175Z,5.30
2022-11-18T14:06:02.385Z,5.40
2022-11-18T14:07:23.199Z,5.40
2022-11-18T14:08:35.063Z,5.40
2022-11-18T14:09:36.691Z,5.40
2022-11-18T14:10:44.926Z,5.40
2022-11-18T14:12:01.897Z,5.40
2022-11-18T14:13:04.275Z,5.40
2022-11-18T14:14:06.288Z,5.50
2022-11-18T14:15:14.910Z,5.40
2022-11-18T14:16:19.247Z,5.40
2022-11-18T14:17:24.686Z,5.30
2022-11-18T14:18:38.443Z,5.30
2022-11-18T14:19:40.731Z,5.30
2022-11-18T14:20:51.341Z,5.30
2022-11-18T14:21:52.963Z,5.30
2022-11-18T14:23:00.123Z,5.30
2022-11-18T14:24:02.983Z,5.30
2022-11-18T14:25:20.303Z,5.30
2022-11-18T14:26:32.948Z,5.40
2022-11-18T14:27:38.686Z,5.30
2022-11-18T14:28:40.289Z,5.30
2022-11-18T14:29:50.397Z,5.30
2022-11-18T14:31:17.906Z,5.30
2022-11-18T14:32:19.588Z,5.30
2022-11-18T14:33:25.434Z,5.30
2022-11-18T14:34:27.257Z,5.30
2022-11-18T14:35:33.366Z,5.30
2022-11-18T14:36:36.287Z,5.40
2022-11-18T14:37:37.859Z,5.40
2022-11-18T14:40:15.246Z,5.20
2022-11-18T14:41:43.556Z,5.10
2022-11-18T14:42:46.215Z,5.10
2022-11-18T14:43:47.764Z,5.00
2022-11-18T14:44:50.569Z,5.00
2022-11-18T14:45:58.763Z,5.00
2022-11-18T14:47:02.276Z,5.10
2022-11-18T14:48:04.910Z,5.10
2022-11-18T14:49:13.336Z,5.10
2022-11-18T14:50:15.463Z,5.10
2022-11-18T14:51:17.503Z,5.10
2022-11-18T14:52:19.265Z,5.10
2022-11-18T14:53:21.367Z,5.10
2022-11-18T14:54:27.090Z,5.10
2022-11-18T14:55:29.503Z,5.00
2022-11-18T14:56:32.796Z,5.00
2022-11-18T14:57:34.355Z,5.00
2022-11-18T14:58:35.953Z,5.00
2022-11-18T14:59:37.519Z,4.90
2022-11-18T15:00:39.623Z,4.90
2022-11-18T15:01:42.316Z,4.90
2022-11-18T15:02:44.094Z,4.80